SBFL/FLN METAR and TAF weather

Enter ICAO airport designator
Station Type Date Time Source
SBFL METAR 2019/08/19 08:00 UTC NOAA

SBFL 190800Z 15010KT 9999 FEW020 BKN060 12/08 Q1021


Station Type Date Time Source
SBFL Decoded METAR 2019/08/19 08:00 UTC NOAA

Station name not available
Aug 19, 2019 - 04:00 AM EDT / 2019.08.19 0800 UTC
Wind: from the SSE (150 degrees) at 12 MPH (10 KT):0
Visibility: greater than 7 mile(s):0
Sky conditions: mostly cloudy
Temperature: 53 F (12 C)
Dew Point: 46 F (8 C)
Relative Humidity: 76%
Pressure (altimeter): 30.15 in. Hg (1021 hPa)
ob: SBFL 190800Z 15010KT 9999 FEW020 BKN060 12/08 Q1021
cycle: 8

Station Type Date Time Source
SBFL TAF 2019/08/19 06:03 UTC NOAA

TAF SBFL 190300Z 1906/2006 18010KT 9999 SCT030 TN13/1908Z TX16/1916Z PROB40
TEMPO 1906/1914 18015KT 4000 SHRA BR BKN010 BKN020 FEW030TCU
RMK PDJ

Example: see airport list